Palembang International

Airport
ICAO code: 
WIPP
Summary
ICAO Region: 
APAC
Territory: 
Location: 
Palembang,
Coordinates: 
Aerial View: 
2° 53' 52.282" S, 104° 42' 5.015" E
Metar
Observation
WIPP 181030Z 36006KT 9999 SCT010 28/23 Q1008 RMK CB TO SW ANDW
Station
Palembang / Talangbetutu
Date/Time
2022-01-18 10:30:00
Wind direction
360°
Wind speed
06 kts
Lowest cloud amount
scattered clouds
Temperature
28°C
Dew point
23°C
Humidity
74%
QNH
1008 hPa
Weather condition
n/a

Description

international airport serving the city of Palembang, South Sumatra.

Climatology

Tropical Rainforest climate (Köppen climate classification Af) - almost no distinct seasons, average daily temperature around 27°C throughout the year. Extensive cloud cover and heavy rainfall prevent temperatures from rising much over 33°C. The diurnal temperature change is between 2°C and 5°C which is greater than the annual temperature range of 2°C. Rainfall is heavy and is usually convectional and in the afternoon.

Runways

Designator Length Width Surface Rops
11/29 2500 45 ASP Yes/Yes
Airport map: 
Aerial View: 

Accidents and Serious Incidents at or in the vicinity of WIPP

SKYbrary Partners:

Safety knowledge contributed by: